sensor_id;sensor_type;location;lat;lon;timestamp;pressure;altitude;pressure_sealevel;temperature;humidity
55187;BME280;55457;52.002;5.464;2023-05-23T00:01:29;101731.94;;;23.33;53.01
55187;BME280;55457;52.002;5.464;2023-05-23T00:03:56;101729.22;;;23.33;53.15
55187;BME280;55457;52.002;5.464;2023-05-23T00:06:21;101731.38;;;23.31;53.07
55187;BME280;55457;52.002;5.464;2023-05-23T00:08:47;101723.22;;;23.31;52.97
55187;BME280;55457;52.002;5.464;2023-05-23T00:11:12;101734.91;;;23.31;52.81
55187;BME280;55457;52.002;5.464;2023-05-23T00:13:38;101734.09;;;23.31;52.74
55187;BME280;55457;52.002;5.464;2023-05-23T00:16:04;101728.66;;;23.31;52.99
55187;BME280;55457;52.002;5.464;2023-05-23T00:18:35;101738.72;;;23.30;52.75
55187;BME280;55457;52.002;5.464;2023-05-23T00:21:01;101731.63;;;23.29;52.88
55187;BME280;55457;52.002;5.464;2023-05-23T00:23:27;101735.38;;;23.28;52.76
55187;BME280;55457;52.002;5.464;2023-05-23T00:25:54;101743.31;;;23.30;53.20
55187;BME280;55457;52.002;5.464;2023-05-23T00:28:20;101744.41;;;23.29;53.01
55187;BME280;55457;52.002;5.464;2023-05-23T00:30:46;101742.50;;;23.29;52.86
55187;BME280;55457;52.002;5.464;2023-05-23T00:33:14;101741.69;;;23.29;53.14
55187;BME280;55457;52.002;5.464;2023-05-23T00:35:40;101750.66;;;23.29;52.63
55187;BME280;55457;52.002;5.464;2023-05-23T00:38:06;101733.75;;;23.27;52.89
55187;BME280;55457;52.002;5.464;2023-05-23T00:40:32;101746.25;;;23.28;52.77
55187;BME280;55457;52.002;5.464;2023-05-23T00:42:59;101750.88;;;23.28;52.95
55187;BME280;55457;52.002;5.464;2023-05-23T00:45:25;101752.56;;;23.29;53.05
55187;BME280;55457;52.002;5.464;2023-05-23T00:47:50;101752.56;;;23.29;52.74
55187;BME280;55457;52.002;5.464;2023-05-23T00:50:17;101751.72;;;23.28;52.87
55187;BME280;55457;52.002;5.464;2023-05-23T00:52:44;101755.50;;;23.27;52.77
55187;BME280;55457;52.002;5.464;2023-05-23T00:55:10;101772.63;;;23.28;52.77
55187;BME280;55457;52.002;5.464;2023-05-23T00:57:36;101769.34;;;23.26;52.44
55187;BME280;55457;52.002;5.464;2023-05-23T01:00:14;101771.00;;;23.27;52.91
55187;BME280;55457;52.002;5.464;2023-05-23T01:02:45;101760.13;;;23.27;52.78
55187;BME280;55457;52.002;5.464;2023-05-23T01:05:12;101759.28;;;23.26;52.64
55187;BME280;55457;52.002;5.464;2023-05-23T01:07:48;101757.41;;;23.27;52.70
55187;BME280;55457;52.002;5.464;2023-05-23T01:10:16;101764.72;;;23.26;52.84
55187;BME280;55457;52.002;5.464;2023-05-23T01:15:13;101756.81;;;23.25;52.59
55187;BME280;55457;52.002;5.464;2023-05-23T01:17:58;101767.69;;;23.25;52.84
55187;BME280;55457;52.002;5.464;2023-05-23T01:20:39;101769.34;;;23.26;52.46
55187;BME280;55457;52.002;5.464;2023-05-23T01:26:57;101758.94;;;23.23;52.52
55187;BME280;55457;52.002;5.464;2023-05-23T01:29:21;101766.06;;;23.24;52.52
55187;BME280;55457;52.002;5.464;2023-05-23T01:31:52;101758.94;;;23.23;52.86
55187;BME280;55457;52.002;5.464;2023-05-23T01:34:18;101757.28;;;23.22;52.82
55187;BME280;55457;52.002;5.464;2023-05-23T01:36:43;101761.91;;;23.21;52.41
55187;BME280;55457;52.002;5.464;2023-05-23T01:39:10;101761.09;;;23.21;52.73
55187;BME280;55457;52.002;5.464;2023-05-23T01:41:36;101761.09;;;23.21;52.48
55187;BME280;55457;52.002;5.464;2023-05-23T01:44:02;101769.25;;;23.21;52.46
55187;BME280;55457;52.002;5.464;2023-05-23T01:46:28;101775.25;;;23.23;52.45
55187;BME280;55457;52.002;5.464;2023-05-23T01:48:56;101768.16;;;23.22;52.59
55187;BME280;55457;52.002;5.464;2023-05-23T01:51:22;101766.53;;;23.21;52.34
55187;BME280;55457;52.002;5.464;2023-05-23T01:53:49;101766.53;;;23.21;52.26
55187;BME280;55457;52.002;5.464;2023-05-23T01:56:15;101772.53;;;23.23;52.50
55187;BME280;55457;52.002;5.464;2023-05-23T01:58:40;101769.81;;;23.23;52.31
55187;BME280;55457;52.002;5.464;2023-05-23T02:01:06;101772.53;;;23.23;52.28
55187;BME280;55457;52.002;5.464;2023-05-23T02:03:31;101769.00;;;23.22;52.55
55187;BME280;55457;52.002;5.464;2023-05-23T02:05:57;101778.22;;;23.21;52.82
55187;BME280;55457;52.002;5.464;2023-05-23T02:08:22;101769.00;;;23.22;52.65
55187;BME280;55457;52.002;5.464;2023-05-23T02:10:47;101777.41;;;23.21;52.60
55187;BME280;55457;52.002;5.464;2023-05-23T02:13:13;101776.56;;;23.20;52.40
55187;BME280;55457;52.002;5.464;2023-05-23T02:15:38;101783.09;;;23.19;52.52
55187;BME280;55457;52.002;5.464;2023-05-23T02:18:03;101784.47;;;23.22;52.35
55187;BME280;55457;52.002;5.464;2023-05-23T02:20:30;101784.47;;;23.22;52.27
55187;BME280;55457;52.002;5.464;2023-05-23T02:22:56;101782.84;;;23.21;52.47
55187;BME280;55457;52.002;5.464;2023-05-23T02:25:21;101782.00;;;23.20;52.39
55187;BME280;55457;52.002;5.464;2023-05-23T02:27:46;101781.19;;;23.20;52.42
55187;BME280;55457;52.002;5.464;2023-05-23T02:30:12;101779.53;;;23.18;52.51
55187;BME280;55457;52.002;5.464;2023-05-23T02:32:37;101789.34;;;23.20;52.40
55187;BME280;55457;52.002;5.464;2023-05-23T02:35:03;101790.16;;;23.20;52.42
55187;BME280;55457;52.002;5.464;2023-05-23T02:37:29;101793.13;;;23.18;51.95
55187;BME280;55457;52.002;5.464;2023-05-23T02:39:55;101791.47;;;23.17;52.40
55187;BME280;55457;52.002;5.464;2023-05-23T02:42:20;101795.84;;;23.18;52.44
55187;BME280;55457;52.002;5.464;2023-05-23T02:44:45;101796.69;;;23.19;52.33
55187;BME280;55457;52.002;5.464;2023-05-23T02:47:11;101804.84;;;23.19;52.22
55187;BME280;55457;52.002;5.464;2023-05-23T02:49:36;101803.19;;;23.18;52.13
55187;BME280;55457;52.002;5.464;2023-05-23T02:52:01;101816.78;;;23.18;52.33
55187;BME280;55457;52.002;5.464;2023-05-23T02:54:27;101814.91;;;23.18;52.14
55187;BME280;55457;52.002;5.464;2023-05-23T02:56:52;101816.78;;;23.18;52.36
55187;BME280;55457;52.002;5.464;2023-05-23T02:59:20;101813.22;;;23.17;52.36
55187;BME280;55457;52.002;5.464;2023-05-23T03:01:46;101816.78;;;23.18;52.14
55187;BME280;55457;52.002;5.464;2023-05-23T03:04:11;101797.75;;;23.18;52.35
55187;BME280;55457;52.002;5.464;2023-05-23T03:06:38;101803.41;;;23.16;52.39
55187;BME280;55457;52.002;5.464;2023-05-23T03:09:04;101807.78;;;23.17;52.20
55187;BME280;55457;52.002;5.464;2023-05-23T03:11:29;101811.56;;;23.16;52.15
55187;BME280;55457;52.002;5.464;2023-05-23T03:13:54;101810.50;;;23.17;52.11
55187;BME280;55457;52.002;5.464;2023-05-23T03:16:21;101815.94;;;23.17;52.09
55187;BME280;55457;52.002;5.464;2023-05-23T03:18:47;101811.56;;;23.16;52.35
55187;BME280;55457;52.002;5.464;2023-05-23T03:21:12;101797.97;;;23.16;52.18
55187;BME280;55457;52.002;5.464;2023-05-23T03:23:38;101812.38;;;23.17;52.30
55187;BME280;55457;52.002;5.464;2023-05-23T03:26:03;101811.56;;;23.16;52.27
55187;BME280;55457;52.002;5.464;2023-05-23T03:28:30;101808.84;;;23.16;52.39
55187;BME280;55457;52.002;5.464;2023-05-23T03:30:56;101811.56;;;23.16;52.01
55187;BME280;55457;52.002;5.464;2023-05-23T03:33:22;101821.38;;;23.17;52.10
55187;BME280;55457;52.002;5.464;2023-05-23T03:35:47;101810.75;;;23.16;51.95
55187;BME280;55457;52.002;5.464;2023-05-23T03:38:13;101808.84;;;23.16;52.23
55187;BME280;55457;52.002;5.464;2023-05-23T03:40:39;101815.34;;;23.15;52.07
55187;BME280;55457;52.002;5.464;2023-05-23T03:43:05;101819.72;;;23.16;52.23
55187;BME280;55457;52.002;5.464;2023-05-23T03:45:31;101823.50;;;23.15;52.21
55187;BME280;55457;52.002;5.464;2023-05-23T03:47:58;101818.06;;;23.15;52.03
55187;BME280;55457;52.002;5.464;2023-05-23T03:50:23;101822.69;;;23.15;52.09
55187;BME280;55457;52.002;5.464;2023-05-23T03:52:48;101825.16;;;23.16;52.17
55187;BME280;55457;52.002;5.464;2023-05-23T03:55:14;101828.13;;;23.15;51.97
55187;BME280;55457;52.002;5.464;2023-05-23T03:57:39;101823.97;;;23.12;52.27
55187;BME280;55457;52.002;5.464;2023-05-23T04:00:05;101830.03;;;23.14;52.22
55187;BME280;55457;52.002;5.464;2023-05-23T04:02:31;101833.56;;;23.15;51.91
55187;BME280;55457;52.002;5.464;2023-05-23T04:04:56;101843.63;;;23.14;51.98
55187;BME280;55457;52.002;5.464;2023-05-23T04:07:22;101841.97;;;23.13;52.10
55187;BME280;55457;52.002;5.464;2023-05-23T04:09:50;101849.06;;;23.14;52.12
55187;BME280;55457;52.002;5.464;2023-05-23T04:12:16;101848.22;;;23.14;52.04
55187;BME280;55457;52.002;5.464;2023-05-23T04:14:41;101850.72;;;23.15;51.82
55187;BME280;55457;52.002;5.464;2023-05-23T04:17:07;101852.84;;;23.13;51.78
55187;BME280;55457;52.002;5.464;2023-05-23T04:19:33;101854.50;;;23.14;51.93
55187;BME280;55457;52.002;5.464;2023-05-23T04:21:59;101856.41;;;23.14;52.13
55187;BME280;55457;52.002;5.464;2023-05-23T04:24:24;101859.94;;;23.14;51.98
55187;BME280;55457;52.002;5.464;2023-05-23T04:26:50;101865.38;;;23.14;52.08
55187;BME280;55457;52.002;5.464;2023-05-23T04:29:15;101864.56;;;23.14;52.10
55187;BME280;55457;52.002;5.464;2023-05-23T04:31:41;101870.00;;;23.14;51.97
55187;BME280;55457;52.002;5.464;2023-05-23T04:34:09;101876.50;;;23.13;52.03
55187;BME280;55457;52.002;5.464;2023-05-23T04:36:35;101867.47;;;23.12;52.21
55187;BME280;55457;52.002;5.464;2023-05-23T04:39:03;101873.78;;;23.13;51.83
55187;BME280;55457;52.002;5.464;2023-05-23T04:41:29;101873.78;;;23.13;51.88
55187;BME280;55457;52.002;5.464;2023-05-23T04:43:55;101882.75;;;23.13;52.05
55187;BME280;55457;52.002;5.464;2023-05-23T04:46:22;101880.03;;;23.13;52.06
55187;BME280;55457;52.002;5.464;2023-05-23T04:48:50;101880.03;;;23.13;51.93
55187;BME280;55457;52.002;5.464;2023-05-23T04:51:16;101884.66;;;23.13;51.95
55187;BME280;55457;52.002;5.464;2023-05-23T04:53:41;101882.75;;;23.13;52.05
55187;BME280;55457;52.002;5.464;2023-05-23T04:56:07;101882.97;;;23.12;51.96
55187;BME280;55457;52.002;5.464;2023-05-23T04:58:33;101889.25;;;23.12;51.85
55187;BME280;55457;52.002;5.464;2023-05-23T05:00:59;101893.03;;;23.11;51.65
55187;BME280;55457;52.002;5.464;2023-05-23T05:03:24;101893.84;;;23.12;52.05
55187;BME280;55457;52.002;5.464;2023-05-23T05:05:50;101908.28;;;23.12;51.90
55187;BME280;55457;52.002;5.464;2023-05-23T05:08:16;101915.59;;;23.12;51.66
55187;BME280;55457;52.002;5.464;2023-05-23T05:10:44;101922.72;;;23.13;52.11
55187;BME280;55457;52.002;5.464;2023-05-23T05:13:09;101925.66;;;23.11;52.03
55187;BME280;55457;52.002;5.464;2023-05-23T05:15:35;101928.38;;;23.11;51.74
55187;BME280;55457;52.002;5.464;2023-05-23T05:18:00;101924.81;;;23.11;51.65
55187;BME280;55457;52.002;5.464;2023-05-23T05:20:25;101934.88;;;23.10;51.88
55187;BME280;55457;52.002;5.464;2023-05-23T05:22:55;101937.59;;;23.10;51.55
55187;BME280;55457;52.002;5.464;2023-05-23T05:25:21;101940.31;;;23.10;51.64
55187;BME280;55457;52.002;5.464;2023-05-23T05:27:46;101948.47;;;23.10;51.90
55187;BME280;55457;52.002;5.464;2023-05-23T05:30:12;101951.19;;;23.10;51.74
55187;BME280;55457;52.002;5.464;2023-05-23T05:32:37;101951.19;;;23.10;52.12
55187;BME280;55457;52.002;5.464;2023-05-23T05:35:03;101956.63;;;23.10;51.80
55187;BME280;55457;52.002;5.464;2023-05-23T05:37:28;101955.56;;;23.11;51.90
55187;BME280;55457;52.002;5.464;2023-05-23T05:39:54;101957.47;;;23.11;51.85
55187;BME280;55457;52.002;5.464;2023-05-23T05:42:21;101962.06;;;23.10;51.71
55187;BME280;55457;52.002;5.464;2023-05-23T05:44:47;101962.06;;;23.10;51.51
55187;BME280;55457;52.002;5.464;2023-05-23T05:47:13;101962.91;;;23.11;51.56
55187;BME280;55457;52.002;5.464;2023-05-23T05:49:38;101970.22;;;23.10;51.77
55187;BME280;55457;52.002;5.464;2023-05-23T05:52:05;101973.78;;;23.11;51.75
55187;BME280;55457;52.002;5.464;2023-05-23T05:54:31;101980.03;;;23.11;51.54
55187;BME280;55457;52.002;5.464;2023-05-23T05:56:56;101980.03;;;23.11;51.56
55187;BME280;55457;52.002;5.464;2023-05-23T05:59:22;101974.59;;;23.11;51.47
55187;BME280;55457;52.002;5.464;2023-05-23T06:01:47;101986.53;;;23.10;51.70
55187;BME280;55457;52.002;5.464;2023-05-23T06:04:15;101992.81;;;23.11;51.72
55187;BME280;55457;52.002;5.464;2023-05-23T06:06:41;101990.09;;;23.11;51.59
55187;BME280;55457;52.002;5.464;2023-05-23T06:09:06;102005.59;;;23.10;51.43
55187;BME280;55457;52.002;5.464;2023-05-23T06:11:31;102002.03;;;23.10;51.71
55187;BME280;55457;52.002;5.464;2023-05-23T06:13:57;102006.41;;;23.11;51.25
55187;BME280;55457;52.002;5.464;2023-05-23T06:16:22;102002.84;;;23.10;51.25
55187;BME280;55457;52.002;5.464;2023-05-23T06:18:47;102002.84;;;23.10;51.25
55187;BME280;55457;52.002;5.464;2023-05-23T06:21:13;102011.84;;;23.11;51.32
55187;BME280;55457;52.002;5.464;2023-05-23T06:23:38;102004.75;;;23.10;51.10
55187;BME280;55457;52.002;5.464;2023-05-23T06:26:03;102012.91;;;23.10;51.26
55187;BME280;55457;52.002;5.464;2023-05-23T06:28:32;102002.03;;;23.10;51.57
55187;BME280;55457;52.002;5.464;2023-05-23T06:30:57;101998.50;;;23.09;51.56
55187;BME280;55457;52.002;5.464;2023-05-23T06:33:22;102001.22;;;23.09;51.52
55187;BME280;55457;52.002;5.464;2023-05-23T06:35:48;102005.59;;;23.10;51.34
55187;BME280;55457;52.002;5.464;2023-05-23T06:38:13;102002.28;;;23.08;51.32
55187;BME280;55457;52.002;5.464;2023-05-23T06:40:38;102013.72;;;23.10;51.39
55187;BME280;55457;52.002;5.464;2023-05-23T06:43:05;102004.75;;;23.10;51.51
55187;BME280;55457;52.002;5.464;2023-05-23T06:45:30;101998.50;;;23.09;51.42
55187;BME280;55457;52.002;5.464;2023-05-23T06:47:55;102001.44;;;23.08;51.56
55187;BME280;55457;52.002;5.464;2023-05-23T06:50:21;102014.81;;;23.09;51.61
55187;BME280;55457;52.002;5.464;2023-05-23T06:52:46;102013.97;;;23.09;51.38
55187;BME280;55457;52.002;5.464;2023-05-23T06:55:12;102007.72;;;23.08;51.41
55187;BME280;55457;52.002;5.464;2023-05-23T06:57:42;102015.88;;;23.08;51.47
55187;BME280;55457;52.002;5.464;2023-05-23T07:00:08;102021.31;;;23.08;51.33
55187;BME280;55457;52.002;5.464;2023-05-23T07:02:34;102014.19;;;23.07;51.54
55187;BME280;55457;52.002;5.464;2023-05-23T07:04:59;102013.16;;;23.08;51.48
55187;BME280;55457;52.002;5.464;2023-05-23T07:07:25;102028.63;;;23.08;51.18
55187;BME280;55457;52.002;5.464;2023-05-23T07:09:50;102025.06;;;23.07;51.04
55187;BME280;55457;52.002;5.464;2023-05-23T07:12:15;102027.78;;;23.07;51.46
55187;BME280;55457;52.002;5.464;2023-05-23T07:14:41;102024.25;;;23.07;51.15
55187;BME280;55457;52.002;5.464;2023-05-23T07:17:06;102021.75;;;23.05;51.41
55187;BME280;55457;52.002;5.464;2023-05-23T07:19:31;102030.50;;;23.07;51.48
55187;BME280;55457;52.002;5.464;2023-05-23T07:21:57;102033.22;;;23.07;51.22
55187;BME280;55457;52.002;5.464;2023-05-23T07:24:22;102039.72;;;23.06;51.13
55187;BME280;55457;52.002;5.464;2023-05-23T07:26:47;102046.81;;;23.07;51.04
55187;BME280;55457;52.002;5.464;2023-05-23T07:29:13;102045.16;;;23.06;51.40
55187;BME280;55457;52.002;5.464;2023-05-23T07:31:38;102044.97;;;23.08;51.11
55187;BME280;55457;52.002;5.464;2023-05-23T07:34:04;102044.09;;;23.07;51.11
55187;BME280;55457;52.002;5.464;2023-05-23T07:36:29;102050.41;;;23.08;51.38
55187;BME280;55457;52.002;5.464;2023-05-23T07:38:59;102048.72;;;23.07;51.01
55187;BME280;55457;52.002;5.464;2023-05-23T07:41:25;102047.88;;;23.06;51.06
55187;BME280;55457;52.002;5.464;2023-05-23T07:43:50;102044.09;;;23.07;51.16
55187;BME280;55457;52.002;5.464;2023-05-23T07:46:16;102047.69;;;23.08;50.78
55187;BME280;55457;52.002;5.464;2023-05-23T07:48:41;102047.44;;;23.09;50.60
55187;BME280;55457;52.002;5.464;2023-05-23T07:51:06;102046.59;;;23.09;50.51
55187;BME280;55457;52.002;5.464;2023-05-23T07:53:32;102052.88;;;23.09;50.43
55187;BME280;55457;52.002;5.464;2023-05-23T07:55:57;102051.22;;;23.08;50.47
55187;BME280;55457;52.002;5.464;2023-05-23T07:58:23;102054.97;;;23.07;50.67
55187;BME280;55457;52.002;5.464;2023-05-23T08:00:48;102054.97;;;23.07;50.54
55187;BME280;55457;52.002;5.464;2023-05-23T08:03:14;102049.09;;;23.10;50.64
55187;BME280;55457;52.002;5.464;2023-05-23T08:05:41;102057.25;;;23.10;50.57
55187;BME280;55457;52.002;5.464;2023-05-23T08:08:06;102060.53;;;23.12;50.63
55187;BME280;55457;52.002;5.464;2023-05-23T08:10:32;102074.13;;;23.12;50.58
55187;BME280;55457;52.002;5.464;2023-05-23T08:12:58;102068.69;;;23.12;50.57
55187;BME280;55457;52.002;5.464;2023-05-23T08:15:24;102069.56;;;23.13;50.66
55187;BME280;55457;52.002;5.464;2023-05-23T08:17:50;102067.66;;;23.13;50.49
55187;BME280;55457;52.002;5.464;2023-05-23T08:20:20;102064.94;;;23.13;50.69
55187;BME280;55457;52.002;5.464;2023-05-23T08:22:46;102063.25;;;23.12;50.48
55187;BME280;55457;52.002;5.464;2023-05-23T08:25:11;102068.69;;;23.12;50.71
55187;BME280;55457;52.002;5.464;2023-05-23T08:27:36;102070.38;;;23.13;50.47
55187;BME280;55457;52.002;5.464;2023-05-23T08:30:02;102075.34;;;23.16;50.57
55187;BME280;55457;52.002;5.464;2023-05-23T08:32:28;102078.06;;;23.16;50.42
55187;BME280;55457;52.002;5.464;2023-05-23T08:34:54;102079.94;;;23.16;50.62
55187;BME280;55457;52.002;5.464;2023-05-23T08:37:19;102083.50;;;23.16;50.74
55187;BME280;55457;52.002;5.464;2023-05-23T08:39:44;102090.59;;;23.17;50.59
55187;BME280;55457;52.002;5.464;2023-05-23T08:42:10;102087.03;;;23.17;50.45
55187;BME280;55457;52.002;5.464;2023-05-23T08:44:35;102090.84;;;23.16;50.47
55187;BME280;55457;52.002;5.464;2023-05-23T08:47:02;102090.38;;;23.19;50.38
55187;BME280;55457;52.002;5.464;2023-05-23T08:49:31;102091.78;;;23.22;50.67
55187;BME280;55457;52.002;5.464;2023-05-23T08:52:00;102091.91;;;23.27;50.15
55187;BME280;55457;52.002;5.464;2023-05-23T08:54:28;102086.03;;;23.30;50.02
55187;BME280;55457;52.002;5.464;2023-05-23T08:56:54;102091.47;;;23.30;50.12
55187;BME280;55457;52.002;5.464;2023-05-23T08:59:20;102092.53;;;23.29;50.29
55187;BME280;55457;52.002;5.464;2023-05-23T09:01:47;102099.00;;;23.28;50.25
55187;BME280;55457;52.002;5.464;2023-05-23T09:04:12;102106.13;;;23.29;49.85
55187;BME280;55457;52.002;5.464;2023-05-23T09:06:37;102099.63;;;23.30;49.86
55187;BME280;55457;52.002;5.464;2023-05-23T09:09:03;102104.81;;;23.31;49.57
55187;BME280;55457;52.002;5.464;2023-05-23T09:11:29;102110.25;;;23.31;49.38
55187;BME280;55457;52.002;5.464;2023-05-23T09:13:58;102104.59;;;23.33;49.35
55187;BME280;55457;52.002;5.464;2023-05-23T09:16:31;102107.31;;;23.33;49.33
55187;BME280;55457;52.002;5.464;2023-05-23T09:18:56;102112.75;;;23.33;49.13
55187;BME280;55457;52.002;5.464;2023-05-23T09:21:23;102110.03;;;23.33;49.32
55187;BME280;55457;52.002;5.464;2023-05-23T09:23:49;102121.72;;;23.33;49.09
55187;BME280;55457;52.002;5.464;2023-05-23T09:26:14;102125.31;;;23.34;49.41
55187;BME280;55457;52.002;5.464;2023-05-23T09:28:42;102133.00;;;23.37;49.04
55187;BME280;55457;52.002;5.464;2023-05-23T09:31:08;102127.53;;;23.37;49.24
55187;BME280;55457;52.002;5.464;2023-05-23T09:33:42;102122.72;;;23.39;49.06
55187;BME280;55457;52.002;5.464;2023-05-23T09:36:09;102117.63;;;23.42;49.08
55187;BME280;55457;52.002;5.464;2023-05-23T09:38:39;102109.25;;;23.44;48.97
55187;BME280;55457;52.002;5.464;2023-05-23T09:41:05;102114.19;;;23.47;49.15
55187;BME280;55457;52.002;5.464;2023-05-23T09:43:30;102114.19;;;23.47;48.92
55187;BME280;55457;52.002;5.464;2023-05-23T09:46:14;102114.81;;;23.49;49.03
55187;BME280;55457;52.002;5.464;2023-05-23T09:48:46;102116.69;;;23.49;48.84
55187;BME280;55457;52.002;5.464;2023-05-23T09:51:12;102123.56;;;23.51;48.71
55187;BME280;55457;52.002;5.464;2023-05-23T09:53:37;102122.50;;;23.52;49.05
55187;BME280;55457;52.002;5.464;2023-05-23T09:56:03;102128.53;;;23.54;48.63
55187;BME280;55457;52.002;5.464;2023-05-23T09:58:29;102128.06;;;23.57;48.75
55187;BME280;55457;52.002;5.464;2023-05-23T10:00:58;102127.81;;;23.59;48.70
55187;BME280;55457;52.002;5.464;2023-05-23T10:03:33;102138.94;;;23.57;48.88
55187;BME280;55457;52.002;5.464;2023-05-23T10:06:07;102134.56;;;23.56;48.66
55187;BME280;55457;52.002;5.464;2023-05-23T10:08:40;102132.09;;;23.55;48.54
55187;BME280;55457;52.002;5.464;2023-05-23T10:13:57;102132.94;;;23.55;48.74
55187;BME280;55457;52.002;5.464;2023-05-23T10:16:58;102137.06;;;23.58;48.80
55187;BME280;55457;52.002;5.464;2023-05-23T10:19:30;102139.78;;;23.58;48.75
55187;BME280;55457;52.002;5.464;2023-05-23T10:22:03;102145.22;;;23.58;48.65
55187;BME280;55457;52.002;5.464;2023-05-23T10:24:30;102146.88;;;23.59;48.87
55187;BME280;55457;52.002;5.464;2023-05-23T10:26:56;102154.22;;;23.58;48.62
55187;BME280;55457;52.002;5.464;2023-05-23T10:29:23;102156.09;;;23.58;48.81
55187;BME280;55457;52.002;5.464;2023-05-23T10:31:50;102149.59;;;23.59;48.78
55187;BME280;55457;52.002;5.464;2023-05-23T10:37:37;102155.41;;;23.62;48.57
55187;BME280;55457;52.002;5.464;2023-05-23T10:45:45;102163.19;;;23.59;48.54
55187;BME280;55457;52.002;5.464;2023-05-23T10:51:05;102166.16;;;23.57;48.72
55187;BME280;55457;52.002;5.464;2023-05-23T10:53:34;102160.03;;;23.62;48.42
55187;BME280;55457;52.002;5.464;2023-05-23T10:56:00;102157.53;;;23.60;48.55
55187;BME280;55457;52.002;5.464;2023-05-23T10:58:28;102160.44;;;23.65;48.15
55187;BME280;55457;52.002;5.464;2023-05-23T11:01:04;102161.25;;;23.66;48.22
55187;BME280;55457;52.002;5.464;2023-05-23T11:03:36;102172.34;;;23.64;48.46
55187;BME280;55457;52.002;5.464;2023-05-23T11:06:03;102164.19;;;23.64;48.09
55187;BME280;55457;52.002;5.464;2023-05-23T11:08:39;102172.34;;;23.64;48.21
55187;BME280;55457;52.002;5.464;2023-05-23T11:11:06;102166.69;;;23.66;48.18
55187;BME280;55457;52.002;5.464;2023-05-23T11:16:26;102158.53;;;23.78;48.00
55187;BME280;55457;52.002;5.464;2023-05-23T11:18:51;102159.00;;;23.75;48.17
55187;BME280;55457;52.002;5.464;2023-05-23T11:21:22;102161.13;;;23.73;47.29
55187;BME280;55457;52.002;5.464;2023-05-23T11:23:53;102156.41;;;23.68;47.01
55187;BME280;55457;52.002;5.464;2023-05-23T11:26:28;102155.56;;;23.67;47.20
55187;BME280;55457;52.002;5.464;2023-05-23T11:28:56;102160.44;;;23.65;47.56
55187;BME280;55457;52.002;5.464;2023-05-23T11:31:22;102164.81;;;23.66;47.87
55187;BME280;55457;52.002;5.464;2023-05-23T11:33:52;102170.00;;;23.68;48.07
55187;BME280;55457;52.002;5.464;2023-05-23T11:36:20;102165.38;;;23.68;48.19
55187;BME280;55457;52.002;5.464;2023-05-23T11:38:46;102162.66;;;23.68;48.08
55187;BME280;55457;52.002;5.464;2023-05-23T11:41:12;102164.09;;;23.71;48.23
55187;BME280;55457;52.002;5.464;2023-05-23T11:43:48;102154.88;;;23.72;48.10
55187;BME280;55457;52.002;5.464;2023-05-23T11:46:14;102161.72;;;23.75;48.06
55187;BME280;55457;52.002;5.464;2023-05-23T11:48:46;102160.19;;;23.79;48.18
55187;BME280;55457;52.002;5.464;2023-05-23T11:51:12;102167.28;;;23.80;48.34
55187;BME280;55457;52.002;5.464;2023-05-23T11:53:37;102158.91;;;23.81;48.13
55187;BME280;55457;52.002;5.464;2023-05-23T11:56:03;102162.34;;;23.88;48.01
55187;BME280;55457;52.002;5.464;2023-05-23T11:58:38;102168.72;;;23.94;47.62
55187;BME280;55457;52.002;5.464;2023-05-23T12:01:08;102171.94;;;23.91;47.81
55187;BME280;55457;52.002;5.464;2023-05-23T12:03:44;102172.91;;;23.97;47.64
55187;BME280;55457;52.002;5.464;2023-05-23T12:06:10;102166.59;;;23.96;47.56
55187;BME280;55457;52.002;5.464;2023-05-23T12:08:38;102173.09;;;23.95;47.74
55187;BME280;55457;52.002;5.464;2023-05-23T12:11:04;102181.75;;;23.92;47.95
55187;BME280;55457;52.002;5.464;2023-05-23T12:13:30;102182.94;;;23.96;47.63
55187;BME280;55457;52.002;5.464;2023-05-23T12:15:56;102184.13;;;24.00;47.73
55187;BME280;55457;52.002;5.464;2023-05-23T12:18:24;102192.91;;;24.02;47.51
55187;BME280;55457;52.002;5.464;2023-05-23T12:20:51;102192.91;;;24.02;47.20
55187;BME280;55457;52.002;5.464;2023-05-23T12:23:23;102185.31;;;24.04;47.59
55187;BME280;55457;52.002;5.464;2023-05-23T12:25:50;102185.31;;;24.04;47.74
55187;BME280;55457;52.002;5.464;2023-05-23T12:28:16;102188.50;;;24.01;47.44
55187;BME280;55457;52.002;5.464;2023-05-23T12:30:42;102187.47;;;24.02;47.39
55187;BME280;55457;52.002;5.464;2023-05-23T12:33:08;102193.94;;;24.01;47.66
55187;BME280;55457;52.002;5.464;2023-05-23T12:35:33;102194.06;;;24.06;47.47
55187;BME280;55457;52.002;5.464;2023-05-23T12:37:59;102189.94;;;24.04;47.70
55187;BME280;55457;52.002;5.464;2023-05-23T12:40:24;102191.22;;;24.01;47.64
55187;BME280;55457;52.002;5.464;2023-05-23T12:42:53;102193.38;;;23.99;47.54
55187;BME280;55457;52.002;5.464;2023-05-23T12:45:21;102191.72;;;23.98;47.51
55187;BME280;55457;52.002;5.464;2023-05-23T12:47:47;102195.50;;;23.97;47.07
55187;BME280;55457;52.002;5.464;2023-05-23T12:50:13;102195.63;;;24.02;47.49
55187;BME280;55457;52.002;5.464;2023-05-23T12:52:40;102189.94;;;24.04;47.30
55187;BME280;55457;52.002;5.464;2023-05-23T12:55:07;102191.13;;;24.08;47.48
55187;BME280;55457;52.002;5.464;2023-05-23T12:57:33;102186.50;;;24.08;47.29
55187;BME280;55457;52.002;5.464;2023-05-23T12:59:59;102181.53;;;24.05;47.64
55187;BME280;55457;52.002;5.464;2023-05-23T13:02:27;102189.09;;;24.03;47.31
55187;BME280;55457;52.002;5.464;2023-05-23T13:04:53;102191.47;;;24.00;47.52
55187;BME280;55457;52.002;5.464;2023-05-23T13:07:18;102180.00;;;23.98;47.41
55187;BME280;55457;52.002;5.464;2023-05-23T13:09:43;102181.19;;;24.02;47.39
55187;BME280;55457;52.002;5.464;2023-05-23T13:12:09;102184.84;;;24.07;47.51